sensor_id;sensor_type;location;lat;lon;timestamp;temperature;humidity
5200;DHT22;2619;47.868;11.892;2023-03-15T00:00:41;3.10;99.90
5200;DHT22;2619;47.868;11.892;2023-03-15T00:03:08;3.20;99.90
5200;DHT22;2619;47.868;11.892;2023-03-15T00:05:33;3.20;99.90
5200;DHT22;2619;47.868;11.892;2023-03-15T00:07:59;3.30;99.90
5200;DHT22;2619;47.868;11.892;2023-03-15T00:10:26;3.40;99.90
5200;DHT22;2619;47.868;11.892;2023-03-15T00:12:52;3.40;99.90
5200;DHT22;2619;47.868;11.892;2023-03-15T00:15:17;3.40;99.90
5200;DHT22;2619;47.868;11.892;2023-03-15T00:17:43;3.50;99.90
5200;DHT22;2619;47.868;11.892;2023-03-15T00:20:10;3.50;99.90
5200;DHT22;2619;47.868;11.892;2023-03-15T00:22:37;3.50;99.90
5200;DHT22;2619;47.868;11.892;2023-03-15T00:25:03;3.60;99.90
5200;DHT22;2619;47.868;11.892;2023-03-15T00:27:29;3.70;99.90
5200;DHT22;2619;47.868;11.892;2023-03-15T00:29:54;3.70;99.90
5200;DHT22;2619;47.868;11.892;2023-03-15T00:32:20;3.80;99.90
5200;DHT22;2619;47.868;11.892;2023-03-15T00:34:45;3.80;99.90
5200;DHT22;2619;47.868;11.892;2023-03-15T00:37:17;3.80;99.90
5200;DHT22;2619;47.868;11.892;2023-03-15T00:39:45;3.70;99.90
5200;DHT22;2619;47.868;11.892;2023-03-15T00:42:11;3.70;99.90
5200;DHT22;2619;47.868;11.892;2023-03-15T00:44:43;3.60;99.90
5200;DHT22;2619;47.868;11.892;2023-03-15T00:47:10;3.50;99.90
5200;DHT22;2619;47.868;11.892;2023-03-15T00:49:36;3.50;99.90
5200;DHT22;2619;47.868;11.892;2023-03-15T00:52:02;3.50;99.90
5200;DHT22;2619;47.868;11.892;2023-03-15T00:54:27;3.50;99.90
5200;DHT22;2619;47.868;11.892;2023-03-15T00:56:53;3.40;99.90
5200;DHT22;2619;47.868;11.892;2023-03-15T00:59:19;3.40;99.90
5200;DHT22;2619;47.868;11.892;2023-03-15T01:01:46;3.40;99.90
5200;DHT22;2619;47.868;11.892;2023-03-15T01:04:12;3.40;99.90
5200;DHT22;2619;47.868;11.892;2023-03-15T01:06:38;3.40;99.90
5200;DHT22;2619;47.868;11.892;2023-03-15T01:09:04;3.40;99.90
5200;DHT22;2619;47.868;11.892;2023-03-15T01:11:30;3.40;99.90
5200;DHT22;2619;47.868;11.892;2023-03-15T01:13:57;3.30;99.90
5200;DHT22;2619;47.868;11.892;2023-03-15T01:16:24;3.30;99.90
5200;DHT22;2619;47.868;11.892;2023-03-15T01:18:50;3.30;99.90
5200;DHT22;2619;47.868;11.892;2023-03-15T01:21:20;3.30;99.90
5200;DHT22;2619;47.868;11.892;2023-03-15T01:23:46;3.20;99.90
5200;DHT22;2619;47.868;11.892;2023-03-15T01:26:13;3.20;99.90
5200;DHT22;2619;47.868;11.892;2023-03-15T01:28:40;3.20;99.90
5200;DHT22;2619;47.868;11.892;2023-03-15T01:31:06;3.20;99.90
5200;DHT22;2619;47.868;11.892;2023-03-15T01:33:33;3.20;99.90
5200;DHT22;2619;47.868;11.892;2023-03-15T01:36:01;3.20;99.90
5200;DHT22;2619;47.868;11.892;2023-03-15T01:38:28;3.20;99.90
5200;DHT22;2619;47.868;11.892;2023-03-15T01:40:54;3.20;99.90
5200;DHT22;2619;47.868;11.892;2023-03-15T01:43:24;3.30;99.90
5200;DHT22;2619;47.868;11.892;2023-03-15T01:48:16;3.20;99.90
5200;DHT22;2619;47.868;11.892;2023-03-15T01:50:42;2.80;99.90
5200;DHT22;2619;47.868;11.892;2023-03-15T01:53:09;2.40;99.90
5200;DHT22;2619;47.868;11.892;2023-03-15T01:55:34;2.10;99.90
5200;DHT22;2619;47.868;11.892;2023-03-15T01:58:01;2.00;99.90
5200;DHT22;2619;47.868;11.892;2023-03-15T02:00:31;1.90;99.90
5200;DHT22;2619;47.868;11.892;2023-03-15T02:02:58;1.80;99.90
5200;DHT22;2619;47.868;11.892;2023-03-15T02:05:28;1.90;99.90
5200;DHT22;2619;47.868;11.892;2023-03-15T02:07:57;1.90;99.90
5200;DHT22;2619;47.868;11.892;2023-03-15T02:10:29;1.90;99.90
5200;DHT22;2619;47.868;11.892;2023-03-15T02:12:55;1.90;99.90
5200;DHT22;2619;47.868;11.892;2023-03-15T02:15:22;1.90;99.90
5200;DHT22;2619;47.868;11.892;2023-03-15T02:17:48;1.90;99.90
5200;DHT22;2619;47.868;11.892;2023-03-15T02:20:42;1.90;99.90
5200;DHT22;2619;47.868;11.892;2023-03-15T02:23:16;2.00;99.90
5200;DHT22;2619;47.868;11.892;2023-03-15T02:28:32;2.00;99.90
5200;DHT22;2619;47.868;11.892;2023-03-15T02:30:58;2.00;99.90
5200;DHT22;2619;47.868;11.892;2023-03-15T02:33:26;2.00;99.90
5200;DHT22;2619;47.868;11.892;2023-03-15T02:35:54;2.00;99.90
5200;DHT22;2619;47.868;11.892;2023-03-15T02:38:20;2.00;99.90
5200;DHT22;2619;47.868;11.892;2023-03-15T02:40:51;2.00;99.90
5200;DHT22;2619;47.868;11.892;2023-03-15T02:43:20;2.00;99.90
5200;DHT22;2619;47.868;11.892;2023-03-15T02:45:48;2.00;99.90
5200;DHT22;2619;47.868;11.892;2023-03-15T02:48:15;2.10;99.90
5200;DHT22;2619;47.868;11.892;2023-03-15T02:50:41;2.10;99.90
5200;DHT22;2619;47.868;11.892;2023-03-15T02:53:07;2.00;99.90
5200;DHT22;2619;47.868;11.892;2023-03-15T02:55:33;2.10;99.90
5200;DHT22;2619;47.868;11.892;2023-03-15T02:57:59;2.00;99.90
5200;DHT22;2619;47.868;11.892;2023-03-15T03:00:25;2.10;99.90
5200;DHT22;2619;47.868;11.892;2023-03-15T03:02:51;2.10;99.90
5200;DHT22;2619;47.868;11.892;2023-03-15T03:05:16;2.10;99.90
5200;DHT22;2619;47.868;11.892;2023-03-15T03:07:42;2.00;99.90
5200;DHT22;2619;47.868;11.892;2023-03-15T03:10:13;2.00;99.90
5200;DHT22;2619;47.868;11.892;2023-03-15T03:12:39;2.00;99.90
5200;DHT22;2619;47.868;11.892;2023-03-15T03:15:05;2.00;99.90
5200;DHT22;2619;47.868;11.892;2023-03-15T03:17:31;2.00;99.90
5200;DHT22;2619;47.868;11.892;2023-03-15T03:20:08;2.00;99.90
5200;DHT22;2619;47.868;11.892;2023-03-15T03:22:35;1.90;99.90
5200;DHT22;2619;47.868;11.892;2023-03-15T03:25:01;1.90;99.90
5200;DHT22;2619;47.868;11.892;2023-03-15T03:27:29;1.90;99.90
5200;DHT22;2619;47.868;11.892;2023-03-15T03:29:54;1.90;99.90
5200;DHT22;2619;47.868;11.892;2023-03-15T03:32:20;1.90;99.90
5200;DHT22;2619;47.868;11.892;2023-03-15T03:34:46;1.90;99.90
5200;DHT22;2619;47.868;11.892;2023-03-15T03:37:21;1.90;99.90
5200;DHT22;2619;47.868;11.892;2023-03-15T03:39:47;1.90;99.90
5200;DHT22;2619;47.868;11.892;2023-03-15T03:42:13;1.90;99.90
5200;DHT22;2619;47.868;11.892;2023-03-15T03:44:39;1.80;99.90
5200;DHT22;2619;47.868;11.892;2023-03-15T03:47:05;1.80;99.90
5200;DHT22;2619;47.868;11.892;2023-03-15T03:49:31;1.70;99.90
5200;DHT22;2619;47.868;11.892;2023-03-15T03:51:56;1.60;99.90
5200;DHT22;2619;47.868;11.892;2023-03-15T03:54:22;1.60;99.90
5200;DHT22;2619;47.868;11.892;2023-03-15T03:56:49;1.60;99.90
5200;DHT22;2619;47.868;11.892;2023-03-15T03:59:15;1.60;99.90
5200;DHT22;2619;47.868;11.892;2023-03-15T04:01:40;1.50;99.90
5200;DHT22;2619;47.868;11.892;2023-03-15T04:04:07;1.60;99.90
5200;DHT22;2619;47.868;11.892;2023-03-15T04:06:33;1.50;99.90
5200;DHT22;2619;47.868;11.892;2023-03-15T04:08:59;1.50;99.90
5200;DHT22;2619;47.868;11.892;2023-03-15T04:11:27;1.50;99.90
5200;DHT22;2619;47.868;11.892;2023-03-15T04:13:53;1.30;99.90
5200;DHT22;2619;47.868;11.892;2023-03-15T04:16:19;1.10;99.90
5200;DHT22;2619;47.868;11.892;2023-03-15T04:18:45;0.90;99.90
5200;DHT22;2619;47.868;11.892;2023-03-15T04:21:11;0.80;99.90
5200;DHT22;2619;47.868;11.892;2023-03-15T04:23:37;0.70;99.90
5200;DHT22;2619;47.868;11.892;2023-03-15T04:26:04;0.80;99.90
5200;DHT22;2619;47.868;11.892;2023-03-15T04:28:32;0.70;99.90
5200;DHT22;2619;47.868;11.892;2023-03-15T04:30:58;0.70;99.90
5200;DHT22;2619;47.868;11.892;2023-03-15T04:33:24;0.70;99.90
5200;DHT22;2619;47.868;11.892;2023-03-15T04:35:50;0.70;99.90
5200;DHT22;2619;47.868;11.892;2023-03-15T04:38:19;0.70;99.90
5200;DHT22;2619;47.868;11.892;2023-03-15T04:40:51;0.70;99.90
5200;DHT22;2619;47.868;11.892;2023-03-15T04:43:17;0.70;99.90
5200;DHT22;2619;47.868;11.892;2023-03-15T04:45:43;0.70;99.90
5200;DHT22;2619;47.868;11.892;2023-03-15T04:48:08;0.70;99.90
5200;DHT22;2619;47.868;11.892;2023-03-15T04:50:35;0.70;99.90
5200;DHT22;2619;47.868;11.892;2023-03-15T04:53:01;0.70;99.90
5200;DHT22;2619;47.868;11.892;2023-03-15T04:55:26;0.70;99.90
5200;DHT22;2619;47.868;11.892;2023-03-15T04:57:52;0.70;99.90
5200;DHT22;2619;47.868;11.892;2023-03-15T05:00:18;0.60;99.90
5200;DHT22;2619;47.868;11.892;2023-03-15T05:02:44;0.60;99.90
5200;DHT22;2619;47.868;11.892;2023-03-15T05:05:12;0.60;99.90
5200;DHT22;2619;47.868;11.892;2023-03-15T05:07:38;0.60;99.90
5200;DHT22;2619;47.868;11.892;2023-03-15T05:10:05;0.60;99.90
5200;DHT22;2619;47.868;11.892;2023-03-15T05:12:31;0.60;99.90
5200;DHT22;2619;47.868;11.892;2023-03-15T05:14:58;0.60;99.90
5200;DHT22;2619;47.868;11.892;2023-03-15T05:17:23;0.50;99.90
5200;DHT22;2619;47.868;11.892;2023-03-15T05:19:49;0.50;99.90
5200;DHT22;2619;47.868;11.892;2023-03-15T05:22:16;0.50;99.90
5200;DHT22;2619;47.868;11.892;2023-03-15T05:24:42;0.50;99.90
5200;DHT22;2619;47.868;11.892;2023-03-15T05:27:08;0.50;99.90
5200;DHT22;2619;47.868;11.892;2023-03-15T05:29:33;0.50;99.90
5200;DHT22;2619;47.868;11.892;2023-03-15T05:31:59;0.50;99.90
5200;DHT22;2619;47.868;11.892;2023-03-15T05:34:28;0.50;99.90
5200;DHT22;2619;47.868;11.892;2023-03-15T05:36:54;0.50;99.90
5200;DHT22;2619;47.868;11.892;2023-03-15T05:39:19;0.50;99.90
5200;DHT22;2619;47.868;11.892;2023-03-15T05:41:47;0.50;99.90
5200;DHT22;2619;47.868;11.892;2023-03-15T05:44:12;0.40;99.90
5200;DHT22;2619;47.868;11.892;2023-03-15T05:46:38;0.40;99.90
5200;DHT22;2619;47.868;11.892;2023-03-15T05:49:03;0.40;99.90
5200;DHT22;2619;47.868;11.892;2023-03-15T05:51:29;0.40;99.90
5200;DHT22;2619;47.868;11.892;2023-03-15T05:53:55;0.40;99.90
5200;DHT22;2619;47.868;11.892;2023-03-15T05:56:20;0.40;99.90
5200;DHT22;2619;47.868;11.892;2023-03-15T05:58:46;0.40;99.90
5200;DHT22;2619;47.868;11.892;2023-03-15T06:01:11;0.50;99.90
5200;DHT22;2619;47.868;11.892;2023-03-15T06:03:37;0.50;99.90
5200;DHT22;2619;47.868;11.892;2023-03-15T06:06:03;0.50;99.90
5200;DHT22;2619;47.868;11.892;2023-03-15T06:08:29;0.50;99.90
5200;DHT22;2619;47.868;11.892;2023-03-15T06:10:55;0.40;99.90
5200;DHT22;2619;47.868;11.892;2023-03-15T06:13:20;0.50;99.90
5200;DHT22;2619;47.868;11.892;2023-03-15T06:15:46;0.50;99.90
5200;DHT22;2619;47.868;11.892;2023-03-15T06:18:12;0.60;99.90
5200;DHT22;2619;47.868;11.892;2023-03-15T06:20:39;0.60;99.90
5200;DHT22;2619;47.868;11.892;2023-03-15T06:23:05;0.60;99.90
5200;DHT22;2619;47.868;11.892;2023-03-15T06:25:31;0.60;99.90
5200;DHT22;2619;47.868;11.892;2023-03-15T06:27:56;0.60;99.90
5200;DHT22;2619;47.868;11.892;2023-03-15T06:30:22;0.60;99.90
5200;DHT22;2619;47.868;11.892;2023-03-15T06:32:48;0.60;99.90
5200;DHT22;2619;47.868;11.892;2023-03-15T06:35:13;0.70;99.90
5200;DHT22;2619;47.868;11.892;2023-03-15T06:37:39;0.70;99.90
5200;DHT22;2619;47.868;11.892;2023-03-15T06:40:07;0.70;99.90
5200;DHT22;2619;47.868;11.892;2023-03-15T06:42:34;0.70;99.90
5200;DHT22;2619;47.868;11.892;2023-03-15T06:45:00;0.70;99.90
5200;DHT22;2619;47.868;11.892;2023-03-15T06:47:26;0.80;99.90
5200;DHT22;2619;47.868;11.892;2023-03-15T06:49:52;0.90;99.90
5200;DHT22;2619;47.868;11.892;2023-03-15T06:52:18;0.90;99.90
5200;DHT22;2619;47.868;11.892;2023-03-15T06:54:43;0.90;99.90
5200;DHT22;2619;47.868;11.892;2023-03-15T06:57:09;0.90;99.90
5200;DHT22;2619;47.868;11.892;2023-03-15T06:59:35;0.90;99.90
5200;DHT22;2619;47.868;11.892;2023-03-15T07:02:00;0.90;99.90
5200;DHT22;2619;47.868;11.892;2023-03-15T07:04:26;0.90;99.90
5200;DHT22;2619;47.868;11.892;2023-03-15T07:06:52;0.90;99.90
5200;DHT22;2619;47.868;11.892;2023-03-15T07:09:18;1.00;99.90
5200;DHT22;2619;47.868;11.892;2023-03-15T07:11:44;0.90;99.90
5200;DHT22;2619;47.868;11.892;2023-03-15T07:14:10;0.90;99.90
5200;DHT22;2619;47.868;11.892;2023-03-15T07:16:35;0.90;99.90
5200;DHT22;2619;47.868;11.892;2023-03-15T07:19:01;1.00;99.90
5200;DHT22;2619;47.868;11.892;2023-03-15T07:21:27;1.00;99.90
5200;DHT22;2619;47.868;11.892;2023-03-15T07:23:53;1.00;99.90
5200;DHT22;2619;47.868;11.892;2023-03-15T07:26:19;0.90;99.90
5200;DHT22;2619;47.868;11.892;2023-03-15T07:28:44;0.90;99.90
5200;DHT22;2619;47.868;11.892;2023-03-15T07:31:10;0.90;99.90
5200;DHT22;2619;47.868;11.892;2023-03-15T07:33:36;1.10;99.90
5200;DHT22;2619;47.868;11.892;2023-03-15T07:36:03;1.20;99.90
5200;DHT22;2619;47.868;11.892;2023-03-15T07:38:30;1.30;99.90
5200;DHT22;2619;47.868;11.892;2023-03-15T07:40:56;1.50;99.90
5200;DHT22;2619;47.868;11.892;2023-03-15T07:43:22;1.60;99.90
5200;DHT22;2619;47.868;11.892;2023-03-15T07:45:48;1.80;99.90
5200;DHT22;2619;47.868;11.892;2023-03-15T07:48:15;1.90;99.90
5200;DHT22;2619;47.868;11.892;2023-03-15T07:50:41;2.00;99.90
5200;DHT22;2619;47.868;11.892;2023-03-15T07:53:07;2.10;99.90
5200;DHT22;2619;47.868;11.892;2023-03-15T07:55:33;2.20;99.90
5200;DHT22;2619;47.868;11.892;2023-03-15T07:57:59;2.40;99.90
5200;DHT22;2619;47.868;11.892;2023-03-15T08:00:25;2.60;99.90
5200;DHT22;2619;47.868;11.892;2023-03-15T08:02:50;2.70;99.90
5200;DHT22;2619;47.868;11.892;2023-03-15T08:05:16;2.90;99.90
5200;DHT22;2619;47.868;11.892;2023-03-15T08:07:45;3.00;99.90
5200;DHT22;2619;47.868;11.892;2023-03-15T08:10:12;3.00;99.90
5200;DHT22;2619;47.868;11.892;2023-03-15T08:12:38;3.20;99.90
5200;DHT22;2619;47.868;11.892;2023-03-15T08:15:06;3.30;99.90
5200;DHT22;2619;47.868;11.892;2023-03-15T08:17:32;3.30;99.90
5200;DHT22;2619;47.868;11.892;2023-03-15T08:19:57;3.40;99.90
5200;DHT22;2619;47.868;11.892;2023-03-15T08:22:23;3.40;99.90
5200;DHT22;2619;47.868;11.892;2023-03-15T08:24:49;3.30;99.90
5200;DHT22;2619;47.868;11.892;2023-03-15T08:27:17;3.40;99.90
5200;DHT22;2619;47.868;11.892;2023-03-15T08:29:43;3.50;99.90
5200;DHT22;2619;47.868;11.892;2023-03-15T08:32:09;3.40;99.90
5200;DHT22;2619;47.868;11.892;2023-03-15T08:34:34;3.40;99.90
5200;DHT22;2619;47.868;11.892;2023-03-15T08:37:00;3.20;99.90
5200;DHT22;2619;47.868;11.892;2023-03-15T08:39:26;3.10;99.90
5200;DHT22;2619;47.868;11.892;2023-03-15T08:41:51;3.10;99.90
5200;DHT22;2619;47.868;11.892;2023-03-15T08:44:17;3.10;99.90
5200;DHT22;2619;47.868;11.892;2023-03-15T08:46:42;2.80;99.90
5200;DHT22;2619;47.868;11.892;2023-03-15T08:49:08;2.60;99.90
5200;DHT22;2619;47.868;11.892;2023-03-15T08:51:34;2.60;99.90
5200;DHT22;2619;47.868;11.892;2023-03-15T08:53:59;2.70;99.90
5200;DHT22;2619;47.868;11.892;2023-03-15T08:56:28;3.00;99.90
5200;DHT22;2619;47.868;11.892;2023-03-15T08:58:54;3.20;99.90
5200;DHT22;2619;47.868;11.892;2023-03-15T09:01:19;3.50;99.90
5200;DHT22;2619;47.868;11.892;2023-03-15T09:03:45;3.90;99.90
5200;DHT22;2619;47.868;11.892;2023-03-15T09:06:11;4.20;99.90
5200;DHT22;2619;47.868;11.892;2023-03-15T09:08:36;4.20;99.90
5200;DHT22;2619;47.868;11.892;2023-03-15T09:11:02;4.40;99.90
5200;DHT22;2619;47.868;11.892;2023-03-15T09:13:28;4.40;99.90
5200;DHT22;2619;47.868;11.892;2023-03-15T09:15:55;4.50;99.90
5200;DHT22;2619;47.868;11.892;2023-03-15T09:18:21;4.70;99.90
5200;DHT22;2619;47.868;11.892;2023-03-15T09:20:47;4.70;99.90
5200;DHT22;2619;47.868;11.892;2023-03-15T09:23:13;4.30;99.90
5200;DHT22;2619;47.868;11.892;2023-03-15T09:25:39;4.10;99.90
5200;DHT22;2619;47.868;11.892;2023-03-15T09:28:07;3.90;99.90
5200;DHT22;2619;47.868;11.892;2023-03-15T09:30:34;4.10;99.90
5200;DHT22;2619;47.868;11.892;2023-03-15T09:33:00;4.40;99.90
5200;DHT22;2619;47.868;11.892;2023-03-15T09:35:25;4.30;99.90
5200;DHT22;2619;47.868;11.892;2023-03-15T09:37:51;4.40;99.90
5200;DHT22;2619;47.868;11.892;2023-03-15T09:49:18;4.90;99.90
5200;DHT22;2619;47.868;11.892;2023-03-15T09:53:58;5.00;99.90
5200;DHT22;2619;47.868;11.892;2023-03-15T09:56:38;5.60;99.90
5200;DHT22;2619;47.868;11.892;2023-03-15T09:59:05;6.20;99.90
5200;DHT22;2619;47.868;11.892;2023-03-15T10:01:35;6.80;99.90
5200;DHT22;2619;47.868;11.892;2023-03-15T10:04:29;6.70;99.90
5200;DHT22;2619;47.868;11.892;2023-03-15T10:06:58;6.10;99.90
5200;DHT22;2619;47.868;11.892;2023-03-15T10:09:28;5.60;99.90
5200;DHT22;2619;47.868;11.892;2023-03-15T10:12:08;5.50;99.90
5200;DHT22;2619;47.868;11.892;2023-03-15T10:17:11;5.00;99.90
5200;DHT22;2619;47.868;11.892;2023-03-15T10:19:49;5.10;99.90
5200;DHT22;2619;47.868;11.892;2023-03-15T10:22:30;5.30;99.90
5200;DHT22;2619;47.868;11.892;2023-03-15T10:30:23;6.40;99.90
5200;DHT22;2619;47.868;11.892;2023-03-15T10:32:57;7.10;99.90
5200;DHT22;2619;47.868;11.892;2023-03-15T10:35:23;7.30;99.90
5200;DHT22;2619;47.868;11.892;2023-03-15T10:37:49;7.50;99.90
5200;DHT22;2619;47.868;11.892;2023-03-15T10:40:15;7.40;99.90
5200;DHT22;2619;47.868;11.892;2023-03-15T10:43:01;7.10;99.90
5200;DHT22;2619;47.868;11.892;2023-03-15T10:45:36;6.40;99.90
5200;DHT22;2619;47.868;11.892;2023-03-15T10:48:02;5.70;99.90
5200;DHT22;2619;47.868;11.892;2023-03-15T10:50:31;5.30;99.90
5200;DHT22;2619;47.868;11.892;2023-03-15T10:52:58;5.10;99.90
5200;DHT22;2619;47.868;11.892;2023-03-15T10:55:34;4.80;99.90
5200;DHT22;2619;47.868;11.892;2023-03-15T10:58:28;4.60;99.90
5200;DHT22;2619;47.868;11.892;2023-03-15T11:01:03;4.50;99.90
5200;DHT22;2619;47.868;11.892;2023-03-15T11:03:32;4.60;99.90
5200;DHT22;2619;47.868;11.892;2023-03-15T11:05:58;4.50;99.90
5200;DHT22;2619;47.868;11.892;2023-03-15T11:08:35;4.40;99.90
5200;DHT22;2619;47.868;11.892;2023-03-15T11:11:02;4.30;99.90
5200;DHT22;2619;47.868;11.892;2023-03-15T11:13:30;4.30;99.90
5200;DHT22;2619;47.868;11.892;2023-03-15T11:16:26;4.40;99.90
5200;DHT22;2619;47.868;11.892;2023-03-15T11:19:02;4.40;99.90
5200;DHT22;2619;47.868;11.892;2023-03-15T11:21:32;4.60;99.90
5200;DHT22;2619;47.868;11.892;2023-03-15T11:23:59;4.70;99.90
5200;DHT22;2619;47.868;11.892;2023-03-15T11:26:27;4.80;99.90
5200;DHT22;2619;47.868;11.892;2023-03-15T11:29:03;5.30;99.90
5200;DHT22;2619;47.868;11.892;2023-03-15T11:31:30;5.80;99.90
5200;DHT22;2619;47.868;11.892;2023-03-15T11:34:04;6.50;99.90
5200;DHT22;2619;47.868;11.892;2023-03-15T11:36:32;7.20;99.90
5200;DHT22;2619;47.868;11.892;2023-03-15T11:38:59;7.60;99.90
5200;DHT22;2619;47.868;11.892;2023-03-15T11:41:35;7.70;99.90
5200;DHT22;2619;47.868;11.892;2023-03-15T11:46:45;7.70;99.90
5200;DHT22;2619;47.868;11.892;2023-03-15T11:51:49;8.00;99.90
5200;DHT22;2619;47.868;11.892;2023-03-15T11:54:16;7.50;99.90
5200;DHT22;2619;47.868;11.892;2023-03-15T11:59:17;6.70;99.90
5200;DHT22;2619;47.868;11.892;2023-03-15T12:07:03;5.80;99.90
5200;DHT22;2619;47.868;11.892;2023-03-15T12:09:39;5.80;99.90
5200;DHT22;2619;47.868;11.892;2023-03-15T12:18:02;5.70;99.90
5200;DHT22;2619;47.868;11.892;2023-03-15T12:21:07;6.10;99.90
5200;DHT22;2619;47.868;11.892;2023-03-15T12:23:38;6.40;99.90
5200;DHT22;2619;47.868;11.892;2023-03-15T12:26:30;6.70;99.30
5200;DHT22;2619;47.868;11.892;2023-03-15T12:31:25;7.60;99.60
5200;DHT22;2619;47.868;11.892;2023-03-15T12:33:54;7.60;99.70
5200;DHT22;2619;47.868;11.892;2023-03-15T12:36:31;7.70;99.90
5200;DHT22;2619;47.868;11.892;2023-03-15T12:39:20;8.00;99.90
5200;DHT22;2619;47.868;11.892;2023-03-15T12:41:48;8.30;97.00
5200;DHT22;2619;47.868;11.892;2023-03-15T12:44:24;8.50;98.20
5200;DHT22;2619;47.868;11.892;2023-03-15T12:51:59;9.00;97.00
5200;DHT22;2619;47.868;11.892;2023-03-15T12:54:46;9.20;93.60
5200;DHT22;2619;47.868;11.892;2023-03-15T12:57:20;9.10;93.00
5200;DHT22;2619;47.868;11.892;2023-03-15T13:00:14;8.90;93.80
5200;DHT22;2619;47.868;11.892;2023-03-15T13:07:59;8.40;93.10
5200;DHT22;2619;47.868;11.892;2023-03-15T13:10:37;7.80;90.30
5200;DHT22;2619;47.868;11.892;2023-03-15T13:19:03;7.20;94.00
5200;DHT22;2619;47.868;11.892;2023-03-15T13:21:35;7.40;92.90
5200;DHT22;2619;47.868;11.892;2023-03-15T13:24:02;7.20;91.90
5200;DHT22;2619;47.868;11.892;2023-03-15T13:26:58;7.10;93.30
5200;DHT22;2619;47.868;11.892;2023-03-15T13:29:29;7.20;95.50
5200;DHT22;2619;47.868;11.892;2023-03-15T13:32:21;7.40;94.50
5200;DHT22;2619;47.868;11.892;2023-03-15T13:34:46;7.50;94.80
5200;DHT22;2619;47.868;11.892;2023-03-15T13:37:21;7.40;93.90
5200;DHT22;2619;47.868;11.892;2023-03-15T13:40:00;7.30;92.70
5200;DHT22;2619;47.868;11.892;2023-03-15T13:42:26;7.00;91.60
5200;DHT22;2619;47.868;11.892;2023-03-15T13:45:22;6.90;92.90
5200;DHT22;2619;47.868;11.892;2023-03-15T13:47:47;7.00;95.50
5200;DHT22;2619;47.868;11.892;2023-03-15T13:50:18;7.00;94.00
5200;DHT22;2619;47.868;11.892;2023-03-15T13:52:45;7.00;93.60
5200;DHT22;2619;47.868;11.892;2023-03-15T13:55:15;6.90;93.90
5200;DHT22;2619;47.868;11.892;2023-03-15T13:57:41;6.90;93.90
5200;DHT22;2619;47.868;11.892;2023-03-15T14:00:16;7.00;95.60
5200;DHT22;2619;47.868;11.892;2023-03-15T14:02:47;6.90;93.10
5200;DHT22;2619;47.868;11.892;2023-03-15T14:05:18;7.00;95.60
5200;DHT22;2619;47.868;11.892;2023-03-15T14:08:03;7.20;94.10
5200;DHT22;2619;47.868;11.892;2023-03-15T14:10:37;7.30;94.90
5200;DHT22;2619;47.868;11.892;2023-03-15T14:15:59;7.10;95.60
5200;DHT22;2619;47.868;11.892;2023-03-15T14:18:30;7.10;94.60
5200;DHT22;2619;47.868;11.892;2023-03-15T14:21:05;7.00;96.00
5200;DHT22;2619;47.868;11.892;2023-03-15T14:23:35;7.00;95.10
5200;DHT22;2619;47.868;11.892;2023-03-15T14:28:33;7.10;96.70
5200;DHT22;2619;47.868;11.892;2023-03-15T14:30:59;7.00;95.40
5200;DHT22;2619;47.868;11.892;2023-03-15T14:33:37;7.10;95.60
5200;DHT22;2619;47.868;11.892;2023-03-15T14:36:05;7.20;94.20
5200;DHT22;2619;47.868;11.892;2023-03-15T14:38:36;7.40;95.30
5200;DHT22;2619;47.868;11.892;2023-03-15T14:41:31;7.50;94.20
5200;DHT22;2619;47.868;11.892;2023-03-15T14:44:00;7.50;94.30
5200;DHT22;2619;47.868;11.892;2023-03-15T14:46:29;7.40;94.00
5200;DHT22;2619;47.868;11.892;2023-03-15T14:48:55;7.20;94.80
5200;DHT22;2619;47.868;11.892;2023-03-15T14:51:22;7.20;94.80
5200;DHT22;2619;47.868;11.892;2023-03-15T14:53:51;7.20;94.70
5200;DHT22;2619;47.868;11.892;2023-03-15T14:56:18;7.00;94.80
5200;DHT22;2619;47.868;11.892;2023-03-15T14:58:43;6.90;94.00
5200;DHT22;2619;47.868;11.892;2023-03-15T15:01:12;6.80;94.50
5200;DHT22;2619;47.868;11.892;2023-03-15T15:03:41;6.70;96.10
5200;DHT22;2619;47.868;11.892;2023-03-15T15:06:12;6.60;96.80
5200;DHT22;2619;47.868;11.892;2023-03-15T15:08:39;6.40;96.70
5200;DHT22;2619;47.868;11.892;2023-03-15T15:11:07;6.50;96.50
5200;DHT22;2619;47.868;11.892;2023-03-15T15:13:34;6.40;97.10
5200;DHT22;2619;47.868;11.892;2023-03-15T15:16:00;6.40;95.70
5200;DHT22;2619;47.868;11.892;2023-03-15T15:18:28;6.30;96.70
5200;DHT22;2619;47.868;11.892;2023-03-15T15:20:55;6.30;97.60
5200;DHT22;2619;47.868;11.892;2023-03-15T15:23:26;6.30;96.60
5200;DHT22;2619;47.868;11.892;2023-03-15T15:25:58;6.20;95.90
5200;DHT22;2619;47.868;11.892;2023-03-15T15:28:25;6.20;97.30
5200;DHT22;2619;47.868;11.892;2023-03-15T15:30:51;6.20;96.80
5200;DHT22;2619;47.868;11.892;2023-03-15T15:33:17;6.30;97.60
5200;DHT22;2619;47.868;11.892;2023-03-15T15:35:42;6.30;97.60
5200;DHT22;2619;47.868;11.892;2023-03-15T15:38:10;6.30;97.20
5200;DHT22;2619;47.868;11.892;2023-03-15T15:40:36;6.30;97.20
5200;DHT22;2619;47.868;11.892;2023-03-15T15:43:02;6.30;96.50
5200;DHT22;2619;47.868;11.892;2023-03-15T15:45:29;6.30;97.00
5200;DHT22;2619;47.868;11.892;2023-03-15T15:47:54;6.40;97.80
5200;DHT22;2619;47.868;11.892;2023-03-15T15:50:20;6.50;98.30
5200;DHT22;2619;47.868;11.892;2023-03-15T15:52:50;6.40;97.30
5200;DHT22;2619;47.868;11.892;2023-03-15T15:55:21;6.30;97.00
5200;DHT22;2619;47.868;11.892;2023-03-15T15:57:49;6.30;96.70
5200;DHT22;2619;47.868;11.892;2023-03-15T16:00:21;6.40;97.70
5200;DHT22;2619;47.868;11.892;2023-03-15T16:02:51;6.40;97.20
5200;DHT22;2619;47.868;11.892;2023-03-15T16:05:18;6.50;97.60
5200;DHT22;2619;47.868;11.892;2023-03-15T16:07:44;6.50;97.70
5200;DHT22;2619;47.868;11.892;2023-03-15T16:10:18;6.30;96.90
5200;DHT22;2619;47.868;11.892;2023-03-15T16:12:45;6.10;96.70
5200;DHT22;2619;47.868;11.892;2023-03-15T16:15:14;6.00;97.30
5200;DHT22;2619;47.868;11.892;2023-03-15T16:17:40;5.80;97.80
5200;DHT22;2619;47.868;11.892;2023-03-15T16:20:06;5.70;98.70
5200;DHT22;2619;47.868;11.892;2023-03-15T16:22:35;5.60;98.00
5200;DHT22;2619;47.868;11.892;2023-03-15T16:25:01;5.70;97.50
5200;DHT22;2619;47.868;11.892;2023-03-15T16:27:29;5.60;97.70
5200;DHT22;2619;47.868;11.892;2023-03-15T16:29:55;5.50;98.00
5200;DHT22;2619;47.868;11.892;2023-03-15T16:32:24;5.50;98.30
5200;DHT22;2619;47.868;11.892;2023-03-15T16:34:51;5.40;97.70
5200;DHT22;2619;47.868;11.892;2023-03-15T16:37:23;5.30;97.60
5200;DHT22;2619;47.868;11.892;2023-03-15T16:39:49;5.10;97.80
5200;DHT22;2619;47.868;11.892;2023-03-15T16:42:19;4.90;99.60
5200;DHT22;2619;47.868;11.892;2023-03-15T16:44:45;4.50;99.90
5200;DHT22;2619;47.868;11.892;2023-03-15T16:47:10;4.10;99.90
5200;DHT22;2619;47.868;11.892;2023-03-15T16:49:36;3.90;99.90
5200;DHT22;2619;47.868;11.892;2023-03-15T16:52:04;3.90;99.90
5200;DHT22;2619;47.868;11.892;2023-03-15T16:54:33;3.80;99.90
5200;DHT22;2619;47.868;11.892;2023-03-15T16:56:59;3.80;99.90
5200;DHT22;2619;47.868;11.892;2023-03-15T16:59:26;3.90;99.90
5200;DHT22;2619;47.868;11.892;2023-03-15T17:01:52;4.00;99.90
5200;DHT22;2619;47.868;11.892;2023-03-15T17:04:19;3.70;99.90
5200;DHT22;2619;47.868;11.892;2023-03-15T17:06:46;3.20;99.90
5200;DHT22;2619;47.868;11.892;2023-03-15T17:09:20;3.00;99.90
5200;DHT22;2619;47.868;11.892;2023-03-15T17:11:48;2.80;99.90
5200;DHT22;2619;47.868;11.892;2023-03-15T17:14:17;2.80;99.90
5200;DHT22;2619;47.868;11.892;2023-03-15T17:16:43;2.60;99.90